1 de julho de 2014

Resultados Oficiais da 2º Etapa 2014 - Piraquara 29/06



Pró Feminino
Geral Num. Nome Categ. Categ. Tempo Pace
1 113 Simone Torres F 18/34 1 03:09:18 17,75
2 111 Elizangela Moretto F 18/34 2 03:28:49 16,09
3 109 Adriana Simões F 18/34 3 03:32:27 15,82
4 110 Claudia Mirian de Souza F 18/34 4 03:43:11 15,05
5 112 Karina Bruning de Oliveira F 18/34 5 03:46:07 14,86
Total de inscritos no grupo = 5
Total de chegadas no grupo = 5
Veja o texto Completo

Pró Masculino
Geral Num. Nome Categ. Categ. Tempo Pace
1 13 Juliano Miotto M 30/34 1 02:14:10 25,04
2 26 Antony Gustavo Bicigo da Silva M 18/29 1 02:14:12 25,04
3 11 João Afonso Fracaro M 30/34 2 02:15:40 24,77
4 77 Ulisses Marcelo Binde M 35/39 1 02:15:51 24,73
5 7 Cleyton Vandré dos Santos M 30/34 3 02:15:56 24,72
6 58 Emerso José Santos M 35/39 2 02:16:07 24,68
7 20 Rodrigo Salim M 30/34 4 02:19:26 24,10
8 87 Marcelo Hoffmann M 40/44 1 02:21:54 23,68
9 44 Samuel Stachera M 18/29 2 02:23:16 23,45
10 22 Alexandre Alves Quintino M 18/29 3 02:23:57 23,34
11 92 Aldo Cesar Batista M 45/55 1 02:24:20 23,28
12 88 Marcio Rogerio Razera M 40/44 2 02:26:53 22,88
13 15 Maiko Robert Lining M 30/34 5 02:27:29 22,78
14 52 Antuerpio Valentino Cunha M 35/39 3 02:29:07 22,53
15 53 Ariel F. do Amaral Neto M 35/39 4 02:29:09 22,53
16 68 Marcelo Furukawa M 35/39 5 02:29:14 22,52
17 104 Lincoln Mendes Kobachuk M 45/55 2 02:29:17 22,51
18 28 Christian Pimentel da Silva M 18/29 4 02:29:45 22,44
19 21 Silvio Marche Junior M 30/34 6 02:30:27 22,33
20 51 Antonio Marcos C Campos M 35/39 6 02:30:59 22,25
21 30 Daniel Azevedo Dalavali M 18/29 5 02:31:59 22,11
22 91 Rudi Hadiezreutbr M 40/44 3 02:33:09 21,94
23 23 Alisson Gonzalves M 18/29 6 02:33:15 21,92
24 29 Claudio Sergio Portela M 18/29 7 02:34:25 21,76
25 62 José Luciano F. Lopes M 35/39 7 02:34:38 21,73
26 9 Emerson Santana Bernardo M 30/34 7 02:34:43 21,72
27 34 Gregori Bertoldi M 18/29 8 02:34:50 21,70
28 81 Ericson Luis Sovinski M 40/44 4 02:35:00 21,68
29 38 Pedro Paulo Boing M 18/29 9 02:36:24 21,48
30 90 Otavio Schuebel M 40/44 5 02:36:26 21,48
31 41 Robson Besciak M 18/29 10 02:36:37 21,45
32 37 Matheus Perreira M 18/29 11 02:36:49 21,43
33 57 Eliton Mello M 35/39 8 02:39:15 21,10
34 107 Renato Baron M 45/55 3 02:39:26 21,07
35 59 Fabrini de Alencar Nogueira M 35/39 9 02:40:02 21,00
36 84 Guillermo Meister Filho M 40/44 6 02:40:15 20,97
37 16 Marcos Bobrik M 30/34 8 02:44:29 20,43
38 63 José Ronaldo Trindande M 35/39 10 02:47:15 20,09
39 54 Carlos Ruann Lovizotto M 35/39 11 02:47:23 20,07
40 12 Juliano Lopes Hack M 30/34 9 02:47:24 20,07
41 25 Anderson Andrade Goncalves M 18/29 12 02:47:34 20,05
42 8 David Jenicoti M 30/34 10 02:47:53 20,01
43 6 Carlos Eduardo Michalovsky Oliveira M 30/34 11 02:49:11 19,86
44 71 Ricardo Bastos M 35/39 12 02:50:08 19,75
45 103 José Carlos Dendinho M 45/55 4 02:51:18 19,61
46 33 Gilberto Marques M 18/29 13 02:52:08 19,52
47 50 Antonio Ilson Kotoviski Filho M 35/39 13 02:52:19 19,50
48 5 Carlos Eduardo Goncalves M 30/34 12 02:53:04 19,41
49 19 Rafael Diego Sandini da Silva M 30/34 13 02:54:22 19,27
50 14 Luiz Carlos da Silva M 30/34 14 02:54:33 19,25
51 36 Luís Paulo Boing M 18/29 14 02:54:53 19,21
52 89 Marcos Roberto Fraresso M 40/44 7 02:55:06 19,19
53 24 Allan Leonardo do Valle M 18/29 15 02:55:39 19,13
54 108 Sergio Roberto Abrahão M 45/55 5 02:55:45 19,12
55 4 Bruno Pletsch M 30/34 15 02:57:14 18,96
56 61 Jairo Jose Castro Becher M 35/39 14 02:57:40 18,91
57 67 Marcelo Espada M 35/39 15 02:59:21 18,73
58 46 Alexandre Aparecido do Nascimento M 35/39 16 03:02:19 18,43
59 10 Fabricio F. da Silva M 30/34 16 03:02:48 18,38
60 85 Iziel Rodrigues Trentin M 40/44 8 03:03:29 18,31
61 47 Alexandre Robson Silva M 35/39 17 03:04:00 18,26
62 40 Ricardo Spolti M 18/29 16 03:04:41 18,19
63 79 Alexandre de Sá M 40/44 9 03:09:02 17,77
64 72 Ricardo Jose Krzesinski M 35/39 18 03:10:00 17,68
65 66 Leonardo Pereira Polak M 35/39 19 03:14:44 17,25
66 49 Anderson Cristian Stocco M 35/39 20 03:15:29 17,19
67 99 Joao Carlos Poletto M 45/55 6 03:17:24 17,02
68 86 Jose Luiz Ferreira da Cruz M 40/44 10 03:19:40 16,83
69 39 Rafael Madeira da Silverira M 18/29 17 03:19:49 16,82
70 75 Teofilo Habinovski Junior M 35/39 21 03:21:14 16,70
71 82 Geinalvo Rodrigues Duarte M 40/44 11 03:21:17 16,69
72 80 Antonio Dirceu Afonso M 40/44 12 03:21:19 16,69
73 93 Aluizio Maia M 45/55 7 03:26:20 16,28
74 32 Felipe Jose dos Santos Teixeira M 18/29 18 03:28:36 16,11
75 69 Marcos Antonio Camargo M 35/39 22 03:32:16 15,83
76 101 Joaquim Ferras Filho M 45/55 8 03:36:52 15,49
77 60 Guido Luiz Niehues Júnior M 35/39 23 03:37:08 15,47
78 106 Pedro Burba M 45/55 9 03:37:25 15,45
79 3 Bruno Daniel Agostini M 30/34 17 03:37:27 15,45
80 98 Jefferson Jose Ozogovski M 45/55 10 03:37:48 15,43
81 102 Jonei Cesar Alves Ferreira M 45/55 11 03:39:29 15,31
82 55 Carlos Wilson Bruning de Oliveira M 35/39 24 03:42:33 15,10
83 43 Rodrigo Santos Barbino M 18/29 19 03:54:04 14,35
Total de inscritos no grupo = 108
Total de chegadas no grupo = 83
Sport Feminino
Geral Num. Nome Categ. Categ. Tempo Pace
1 739 Patricia Prietto Michaloskey F 35+ 1 02:34:11 14,79
2 730 Priscila Cristina Bonfim Santos F 13/34 1 02:36:16 14,59
3 735 Graziella Trovato F 35+ 2 02:36:57 14,53
4 733 Ana Maria de Freitas F 35+ 3 02:44:49 13,83
5 736 Kellyn Caroline Cumin F 35+ 4 02:48:58 13,49
6 742 Simone Aparecida Carnio F 35+ 5 02:49:29 13,45
7 725 Adriana Soares Rodrigues F 13/34 2 02:54:33 13,06
8 729 Jaqueline Braga F 13/34 3 02:54:41 13,05
9 732 Aimojara Rocha A. B. Riezemberg F 35+ 6 02:55:00 13,03
10 740 Rosangela Ribeiro Luciani F 35+ 7 03:08:20 12,11
11 741 Rubia Nara Diniz Ribeiro F 35+ 8 03:09:03 12,06
12 737 Noely Dal Pra F 35+ 9 03:32:51 10,71
13 734 Denise Sponholz Rudek F 35+ 10 03:41:15 10,31
14 728 Francis Hellen M. de M. Lining F 13/34 4 03:49:49 9,92
15 731 Thamiris Barroso dos Reis F 13/34 5 04:15:30 8,92
Total de inscritos no grupo = 18
Total de chegadas no grupo = 15
Sport Masculino
Coloc. Num. Nome Categ. Col.Geral Tempo Pace
1 560 Rafael Moreschi M 13/17 1 01:42:48 22,18
2 754 Ricardo dos Santos Prestes M 18/29 1 01:45:18 21,65
3 545 Renato Tadeu Pilato M 30/34 1 01:52:27 20,28
4 590 Rafael Oliveira Santos M 18/29 2 01:52:38 20,24
5 558 Mateus Moreschi M 13/17 2 01:52:44 20,22
6 635 Oziel Souza Veloso M 35/39 1 01:53:12 20,14
7 626 Luiz da Silva M 35/39 2 01:54:02 19,99
8 522 Fabio Kazubek M 30/34 2 01:54:20 19,94
9 534 Luis Renato Santos Gonçalves M 30/34 3 01:54:51 19,85
10 536 Luiz Fernando Salvi M 30/34 4 01:56:01 19,65
11 533 Luis Guilherme Miola M 30/34 5 01:56:24 19,59
12 643 Romazir Hartman M 35/39 3 01:56:29 19,57
13 622 Helvi Anderson da Silva M 35/39 4 01:57:20 19,43
14 612 Eduardo Branco M 35/39 5 01:57:25 19,42
15 674 Henrique Borges de Macedo M 40/49 1 01:57:30 19,40
16 579 Henrique Lugarini M 18/29 3 02:00:12 18,97
17 667 Dorival João Goulin Jr. M 40/49 2 02:00:15 18,96
18 591 Rafael Rosa Freitas M 18/29 4 02:00:37 18,90
19 500 Elizandro Ride Oliveira M 30/34 6 02:00:52 18,86
20 526 Gilson Coimbra dos Santos M 30/34 7 02:00:54 18,86
21 605 Alexsandro Vieira M 35/39 6 02:01:06 18,83
22 641 Roberto Marques dos Santos M 35/39 7 02:01:40 18,74
23 550 Thiago D. Ceschim M 30/34 8 02:03:07 18,52
24 588 Rafael Fernandes dos Santos M 18/29 5 02:05:18 18,20
25 623 Jonsue Trapp Martins M 35/39 8 02:05:30 18,17
26 660 Antonio Pereira da Silva Filho M 40/49 3 02:05:41 18,14
27 652 Anderson Marques Caldeira M 40/49 4 02:06:36 18,01
28 619 Heberson José Wustro M 35/39 9 02:06:55 17,96
29 563 Artobelli dos Santos M 18/29 6 02:07:15 17,92
30 554 Andre Guilherme Tome Moreira M 13/17 3 02:07:18 17,91
31 509 Carlos Alexandre Marques M 30/34 9 02:07:31 17,88
32 631 Marcio José Cardoso M 35/39 10 02:07:58 17,82
33 557 Dougley Doll M 13/17 4 02:08:39 17,72
34 755 Gleison Pedro de Souza M 13/17 5 02:08:40 17,72
35 657 Antonio Carlos Goncalves dos Santos M 40/49 5 02:08:54 17,69
36 585 Luiz Fernando Ambrosio M 18/29 7 02:09:07 17,66
37 703 Ben Hur Gabardo M 50+ 1 02:09:23 17,62
38 555 Aron Hermano de Almeida M 13/17 6 02:09:31 17,60
39 610 Danilo Gomes Silva M 35/39 11 02:09:55 17,55
40 627 Luiz Felipe Pavia M 35/39 12 02:10:01 17,54
41 681 Jose Leite da Silva M 40/49 6 02:10:12 17,51
42 529 Juan Igancio Schenone M 30/34 10 02:10:22 17,49
43 695 Sandro Amaro Maestrelli M 40/49 7 02:10:30 17,47
44 760 Edgar Rudel M 50+ 2 02:10:35 17,46
45 511 Cleverson Santana Bernardo M 30/34 11 02:10:38 17,45
46 516 Eduardo Ceccon M 30/34 12 02:11:12 17,38
47 510 Cesar Winters M 30/34 13 02:11:30 17,34
48 517 Eduardo Gilioli do Nascimento M 30/34 14 02:11:37 17,32
49 589 Rafael Luiz Gasparin Teixeira M 18/29 8 02:11:42 17,31
50 724 Wilson Ribeiro de Moura M 50+ 3 02:11:45 17,31
51 562 Andre Dias Ceschin M 18/29 9 02:12:40 17,19
52 680 Jose Eduardo Vieira da Silva M 40/49 8 02:12:44 17,18
53 684 Marcos Andre Kalabaide M 40/49 9 02:13:02 17,14
54 692 Ricardo Mikoda M 40/49 10 02:13:06 17,13
55 691 Paulo Roberto Ramos M 40/49 11 02:13:40 17,06
56 710 Fernando Marques de Sousa Carinhas M 50+ 4 02:14:24 16,96
57 502 Adriano Dias da Silva M 30/34 15 02:15:04 16,88
58 712 Jaime Linhares Laibida M 50+ 5 02:15:24 16,84
59 672 Gilberto Perpetuo Rosa M 40/49 12 02:16:17 16,73
60 551 Valdenir dos Santos M 30/34 16 02:16:57 16,65
61 527 Jean Paulo Kohler M 30/34 17 02:17:13 16,62
62 515 Eduardo Akio Sugai M 30/34 18 02:17:34 16,57
63 574 Franciel C. Estival M 18/29 10 02:17:44 16,55
64 609 Daniel Augusto Micheletti M 35/39 13 02:18:01 16,52
65 582 Julio Maia Talamini M 18/29 11 02:20:25 16,24
66 564 Bruno Alves da Silva M 18/29 12 02:21:12 16,15
67 607 Bento Eliseu Aleixo M 35/39 14 02:21:43 16,09
68 644 Silvio Kadota M 35/39 15 02:22:18 16,02
69 587 Marlus Bertoli M 18/29 13 02:22:20 16,02
70 689 Oneide Giovani M 40/49 13 02:22:22 16,01
71 715 Jorge Luis do Nascimento M 50+ 6 02:22:25 16,01
72 506 Antonio Ribeiro de Albuquerque M 30/34 19 02:22:27 16,01
73 625 Julio Cesar Ribeiro Taborda M 35/39 16 02:23:21 15,91
74 603 Alessandro Chistian S. Ribeiro M 35/39 17 02:23:57 15,84
75 676 Ivan Mirando M 40/49 14 02:24:04 15,83
76 602 Agnaldo G. D. Melo M 35/39 18 02:24:22 15,79
77 606 Anderson Marcio Ferreira M 35/39 19 02:24:26 15,79
78 556 Augusto Baron M 13/17 7 02:24:59 15,73
79 598 Wellison Pontes Alves M 18/29 14 02:25:07 15,71
80 576 Getulio de Souza M 18/29 15 02:25:17 15,69
81 586 Marcelo Rosa Zoti M 18/29 16 02:25:51 15,63
82 713 Joao Batista dos Santos M 50+ 7 02:25:54 15,63
83 706 Celerino Antoria Filho M 50+ 8 02:26:20 15,58
84 599 Willian K. de Souza M 18/29 17 02:26:29 15,56
85 514 Eder Francisco Pires M 30/34 20 02:26:44 15,54
86 664 Claudinei Ribeiro M 40/49 15 02:26:48 15,53
87 677 Jairo Laibida M 40/49 16 02:26:51 15,53
88 647 Welinton Bordignon M 35/39 20 02:26:54 15,52
89 618 Gustavo Fischer Sbrissia M 35/39 21 02:27:04 15,50
90 573 Fabricio Pdalla Costa M 18/29 18 02:27:11 15,49
91 633 Mateus Fabricio Feller M 35/39 22 02:27:17 15,48
92 645 Valdecir da Costa M 35/39 23 02:27:25 15,47
93 519 Emerson Alves M 30/34 21 02:27:41 15,44
94 694 Ronaldo Silla M 40/49 17 02:28:45 15,33
95 577 Giovanni Santana da Silva M 18/29 19 02:29:28 15,25
96 546 Rodrigo Ferreira M 30/34 22 02:29:57 15,21
97 699 Ademir Jose Luciani M 50+ 9 02:30:10 15,18
98 504 Alexandre de A. da Silva M 30/34 23 02:30:28 15,15
99 655 Andres Fernando Oro M 40/49 18 02:30:31 15,15
100 535 Luiz Carlos Cavagnoli M 30/34 24 02:31:04 15,09
101 651 Alexandre Reinaldo Cavagnoli M 40/49 19 02:31:06 15,09
102 552 Wagner Charles Lingenover M 30/34 25 02:31:12 15,08
103 595 Roney Uba M 18/29 20 02:31:22 15,06
104 513 Diego Kormann M 30/34 26 02:31:33 15,04
105 723 Romeo Lugarini M 50+ 10 02:31:43 15,03
106 620 Helio Cassiano Borda M 35/39 24 02:31:45 15,02
107 604 Alessandro Luiz de Lara M 35/39 25 02:31:53 15,01
108 720 Osmar Voltz M 50+ 11 02:32:05 14,99
109 544 Reginaldo de Morais Barboza M 30/34 27 02:32:39 14,94
110 628 Luiz Fernando Holtz M 35/39 26 02:32:58 14,91
111 600 Adriano Carlos Pacher M 35/39 27 02:33:09 14,89
112 629 Marcelo Portugal Wozniak M 35/39 28 02:33:26 14,86
113 719 Marcos Luiz Otto M 50+ 12 02:34:41 14,74
114 632 Marcio Luis Danielo Mazur M 35/39 29 02:34:50 14,73
115 507 Breno Dourado Pessoni M 30/34 28 02:35:08 14,70
116 608 Cleverson Legnani M 35/39 30 02:35:24 14,67
117 593 Ricardo T Poletto M 18/29 21 02:36:05 14,61
118 717 Jose Martinho da Rocha M 50+ 13 02:38:28 14,39
119 601 Adriano Yuji Suzuki M 35/39 31 02:39:21 14,31
120 671 Gerson Rocha Hiromoto M 40/49 20 02:41:51 14,09
121 759 João Ricardo Gonçalves M 18/29 22 02:43:05 13,98
122 566 Bruno Vinicius Rua M 18/29 23 02:44:21 13,87
123 568 Daniel Correa Trevelim M 18/29 24 02:44:57 13,82
124 539 Moises Andreatta M 30/34 29 02:45:39 13,76
125 503 Alex Campos de Melo Rodrigues M 30/34 30 02:45:44 13,76
126 571 Fábio F. dos Reis M 18/29 25 02:46:23 13,70
127 624 Jose Carlos de Prado M 35/39 32 02:46:41 13,68
128 666 Denil da Silva Ribeiro M 40/49 21 02:46:45 13,67
129 714 Joao Wildes Caetano M 50+ 14 02:46:54 13,66
130 520 Evandro Drechasler M 30/34 31 02:46:56 13,66
131 653 Andre Fuganti Luppi M 40/49 22 02:48:15 13,55
132 525 Giancarlo de Oliveira Gura M 30/34 32 02:48:48 13,51
133 538 Marcus F. Machado M 30/34 33 02:49:09 13,48
134 518 Elielton Ogliari M 30/34 34 02:49:49 13,43
135 638 Rafael Amancio de Paula M 35/39 33 02:50:02 13,41
136 580 Ian Mauro Concha Chia M 18/29 26 02:50:08 13,40
137 615 Fabio Dias Vieira M 35/39 34 02:51:10 13,32
138 656 Antonio Carlos de Almeida Chiappini M 40/49 23 02:51:36 13,29
139 537 Marcos Jose Silva M 30/34 35 02:51:43 13,28
140 654 Andre Luis Pereira Franke M 40/49 24 02:51:56 13,26
141 597 Thiago Guilherme Blank M 18/29 27 02:52:37 13,21
142 540 Paulo Fernando Grossel M 30/34 36 02:52:50 13,19
143 696 Sandro Luiz do Nascimento M 40/49 25 02:53:10 13,17
144 711 Gentil Franco de Oliveira M 50+ 15 02:53:21 13,15
145 548 Sergio Pocidonio Alberto M 30/34 37 02:53:38 13,13
146 665 Claudiney Vellozo M 40/49 26 02:53:41 13,13
147 649 Adriano Aniceski M 40/49 27 02:54:03 13,10
148 716 Josauro Jantara M 50+ 16 02:54:50 13,04
149 709 Davi Ivanowski M 50+ 17 02:55:17 13,01
150 640 Raul Alfredo L.c. Moreira M 35/39 35 02:56:07 12,95
151 639 Rafael Gomes Ribas M 35/39 36 02:57:59 12,81
152 523 Flavio Faust M 30/34 38 02:58:20 12,79
153 543 Raphael Luiz Putlawancin M 30/34 39 02:58:48 12,75
154 541 Rafael Carlos Prieto Fernandes M 30/34 40 03:00:40 12,62
155 700 Admardo Davila Gomes M 50+ 18 03:02:57 12,46
156 567 Cleiton Cristinano B Santos M 18/29 28 03:03:05 12,45
157 646 Valdemir de Rezende Filho M 35/39 37 03:05:08 12,32
158 661 Aristeu Cardoso Machado M 40/49 28 03:06:32 12,22
159 524 Flavio Renato F. dos Santos M 30/34 41 03:08:14 12,11
160 670 Fabio Luis Bilek M 40/49 29 03:09:35 12,03
161 512 David Alves de Arujo Jr M 30/34 42 03:09:40 12,02
162 679 Jorge Luiz Kimieck M 40/49 30 03:10:54 11,94
163 542 Rafael Juliano Lima Batista M 30/34 43 03:11:30 11,91
164 616 Fernando Alexandre Rodrigues M 35/39 38 03:11:35 11,90
165 617 Fernando Augusto Tortelli M 35/39 39 03:12:02 11,87
166 637 Paulo Nelson Garcia Saczuk Junior M 35/39 40 03:14:47 11,71
167 721 Peter Ney Sozzi M 50+ 19 03:14:53 11,70
168 569 Daniel Padilha M 18/29 29 03:14:56 11,70
169 673 Gilmar Franco de Oliveira M 40/49 31 03:16:06 11,63
170 531 Leandro Michel Coelho M 30/34 44 03:16:41 11,59
171 583 Leo Santos Zwaresz M 18/29 30 03:17:30 11,54
172 559 Nycholas Mello M 13/17 8 03:18:24 11,49
173 592 Rena Heinz Krelling M 18/29 31 03:20:00 11,40
174 690 Paulo Cesar Ribeiro Porto M 40/49 32 03:22:03 11,28
175 718 Marcos A. de Souza Leão M 50+ 20 03:23:30 11,20
176 704 Benhur Etelberto Gaio M 50+ 21 03:27:55 10,97
177 614 Fabiano Camargo Almeida M 35/39 41 03:28:04 10,96
178 663 Carlos Alberto dos Santos Filho M 40/49 33 03:33:10 10,70
179 707 Celso Jose dos Santos M 50+ 22 03:33:39 10,67
180 594 Rodolfo Metzenthin Quisen M 18/29 32 03:34:51 10,61
181 521 Everson Luiz Correia M 30/34 45 03:37:18 10,49
182 687 Mauricio Santos Masucci M 40/49 34 03:37:28 10,48
183 697 Toni Renato Trevizani M 40/49 35 03:38:36 10,43
184 565 Bruno Klaar M 18/29 33 03:38:51 10,42
185 693 Romildo Rudek Junior M 40/49 36 03:40:57 10,32
186 505 Andre Florao M 30/34 46 03:42:58 10,23
187 648 Wilson Dirceu Canuto M 35/39 42 03:43:56 10,18
188 572 Fabio Rogerio de Lima M 18/29 34 03:47:00 10,04
189 549 Thiago Calgaro M 30/34 47 03:47:16 10,03
190 683 Luiz Marcelo Vichiatto M 40/49 37 03:48:04 10,00
191 758 Christian Rossi M 35/39 43 03:48:07 9,99
192 698 Vicente Luis Turra M 40/49 38 03:48:12 9,99
193 757 Carlos Bernardis M 40/49 39 03:48:25 9,98
194 756 Paulo Maximo Filho M 35/39 44 03:48:29 9,98
195 668 Everson Angelo de Souza M 40/49 40 03:52:05 9,82
196 584 Lucas Kobren Zanardini M 18/29 35 03:52:55 9,79
197 682 Julio Cesar Ponciano M 40/49 41 03:53:59 9,74
198 642 Rodolpho Amatto E Silva M 35/39 45 03:54:59 9,70
199 578 Guilherme Mion Leite M 18/29 36 03:57:35 9,60
200 570 Diego Calgaro M 18/29 37 03:57:38 9,59
201 634 Mauricio R. Abagge M 35/39 46 03:57:41 9,59
202 561 Vinicius de Abreu Alves M 13/17 9 03:58:25 9,56
203 708 Dalton Machuca M 50+ 23 04:14:07 8,97
204 575 Frederico de Machuca M 18/29 38 04:14:21 8,96
205 553 Alex Pereira M 13/17 10 04:14:43 8,95
206 701 Alberto B. Nogueira Jr M 50+ 24 04:15:38 8,92
207 685 Marcos Vinicius dos Santos M 40/49 42 04:16:15 8,90
208 675 Ildérico Mello de Paula M 40/49 43 04:38:38 8,18
Total de inscritos no grupo = 232
Total de chegadas no grupo = 208
Light Feminino
Coloc. Num. Nome Categ. Col.Geral Tempo Pace
1 1016 Sandra Bodini Mello FEM 1 01:06:17 17,20
2 1015 Priscila K Bernardi FEM 2 01:07:04 17,00
3 1003 Andréia Oliveira Cuer FEM 3 01:10:17 16,22
4 1005 Anne Suelen Abe FEM 4 01:10:19 16,21
5 1014 Marilda Cruz FEM 5 01:15:57 15,01
6 1012 Luciana Pereira Jasinski Vieira FEM 6 01:17:38 14,68
7 1013 Mariana S. dos Reis FEM 7 01:28:21 12,90
8 1017 Sandra Marcia Grabias FEM 8 01:28:58 12,81
9 1019 Viviane Uhlick FEM 9 01:34:45 12,03
10 1018 Taiana Carinhas FEM 10 01:34:52 12,02
11 1002 Alucimari Taborda Franco FEM 11 01:36:52 11,77
12 1004 Angela Tome FEM 12 01:37:15 11,72
13 1008 Claudia Mayhara de Oliveira FEM 13 01:37:39 11,67
14 1011 Luana Guarneri dos Santos Sarda FEM 14 01:38:11 11,61
15 1010 Juliana de Oliveira P. Ribeiro FEM 15 01:46:36 10,69
16 1007 Chrisleine Sarda FEM 16 01:46:43 10,68
Total de inscritos no grupo = 19
Total de chegadas no grupo = 16
Light Masculino
Coloc. Num. Nome Categ. Col.Geral Tempo Pace
1 1044 Luis Iran Penedo R. das Neves MASC 1 00:45:58 24,80
2 1034 Gelson Coimbra dos Santos MASC 2 00:50:04 22,77
3 1042 Leandro Orlandine MASC 3 00:50:42 22,49
4 1057 Ronaldo de Almeida MASC 4 00:52:01 21,92
5 1046 Matheus Sagatink de Oliveira MASC 5 00:53:45 21,21
6 1031 Fabio Yoshio Tanaka MASC 6 00:53:55 21,14
7 1020 Adalberto da Silva Pena MASC 7 00:54:01 21,10
8 1059 Telson Gomes de Oliveira MASC 8 00:55:46 20,44
9 1038 Jairo Batista Fernandes MASC 9 00:56:01 20,35
10 1024 Angelo Antonio Rumor Junior MASC 10 00:56:57 20,02
11 1045 Marcos Jose Santana MASC 11 00:57:22 19,87
12 1021 Alvaro Fabricyo S.j. Franco MASC 12 00:57:47 19,73
13 1053 Rafael Pettersen Baroni MASC 13 00:57:51 19,71
14 1037 Herik Roger dos Santos MASC 14 01:02:03 18,37
15 1033 Fernando Metzger Felix MASC 15 01:02:58 18,10
16 1058 Rodolfo Pacher Machado MASC 16 01:04:55 17,56
17 1026 Denison Kolling MASC 17 01:05:46 17,33
18 1023 Andre Shinohara Aniceski MASC 18 01:05:55 17,29
19 1025 Cleverson Leineker Opolis MASC 19 01:06:43 17,09
20 1039 Jorge Steinbock MASC 20 01:06:49 17,06
21 1027 Dione William Grazioto do Nascimento MASC 21 01:06:53 17,04
22 1049 Osvaldo da Silva Junior MASC 22 01:09:20 16,44
23 1035 Guilherme de Souza Nogueira MASC 23 01:09:54 16,31
24 1036 Guilherme Novak MASC 24 01:11:47 15,88
25 1054 Rian Imoto MASC 25 01:11:54 15,86
26 1056 Rinaldo Afonso Coval dos Santos MASC 26 01:12:36 15,70
27 1030 Eduardo Farias Jantara MASC 27 01:13:00 15,62
28 1040 Joserley Silva Jantara MASC 28 01:13:10 15,58
29 1022 Andre Bilek Bara MASC 29 01:15:50 15,03
30 1055 Ricardo Jaremczyk MASC 30 01:16:14 14,95
31 1050 Pedro Pamplona Coelho MASC 31 01:18:05 14,60
32 1029 Eder Marinho de Oliveira MASC 32 01:19:15 14,38
33 1051 Peterson Reinaldo do Valle MASC 33 01:36:55 11,76
34 1052 Rafael da Silva Binder MASC 34 01:37:01 11,75
35 1048 Odinei Jose Moreira MASC 35 01:37:22 11,71
36 1028 Dionel Portes de Franca MASC 36 01:37:34 11,68
Total de inscritos no grupo = 40
Total de chegadas no grupo = 36

2 comentários:

  1. Parabéns Alan, assim como a 1ª Etapa, esta foi muito show... Abraço Osvaldo

    ResponderExcluir
    Respostas
    1. Muito obrigado Osvaldo e vamos que vamos trabalhar para sempre melhorar. Muito Obrigado Abraço

      Excluir

Deixe Seu Comentário: